sensor_id;sensor_type;location;lat;lon;timestamp;P1;durP1;ratioP1;P2;durP2;ratioP2
13327;SDS011;6733;51.044;3.746;2023-08-30T00:00:58;6.63;;;4.90;;
13327;SDS011;6733;51.044;3.746;2023-08-30T00:03:24;6.93;;;5.63;;
13327;SDS011;6733;51.044;3.746;2023-08-30T00:05:50;6.30;;;4.97;;
13327;SDS011;6733;51.044;3.746;2023-08-30T00:08:16;5.53;;;5.00;;
13327;SDS011;6733;51.044;3.746;2023-08-30T00:10:44;7.37;;;5.00;;
13327;SDS011;6733;51.044;3.746;2023-08-30T00:13:11;5.87;;;4.87;;
13327;SDS011;6733;51.044;3.746;2023-08-30T00:15:38;5.93;;;5.30;;
13327;SDS011;6733;51.044;3.746;2023-08-30T00:18:04;5.07;;;4.60;;
13327;SDS011;6733;51.044;3.746;2023-08-30T00:20:34;5.97;;;4.67;;
13327;SDS011;6733;51.044;3.746;2023-08-30T00:23:00;6.80;;;6.10;;
13327;SDS011;6733;51.044;3.746;2023-08-30T00:25:26;5.97;;;5.10;;
13327;SDS011;6733;51.044;3.746;2023-08-30T00:27:52;5.93;;;4.97;;
13327;SDS011;6733;51.044;3.746;2023-08-30T00:30:18;5.80;;;4.83;;
13327;SDS011;6733;51.044;3.746;2023-08-30T00:32:45;5.67;;;4.87;;
13327;SDS011;6733;51.044;3.746;2023-08-30T00:35:11;5.40;;;4.90;;
13327;SDS011;6733;51.044;3.746;2023-08-30T00:37:37;6.33;;;5.17;;
13327;SDS011;6733;51.044;3.746;2023-08-30T00:40:03;7.33;;;5.43;;
13327;SDS011;6733;51.044;3.746;2023-08-30T00:42:31;6.10;;;5.43;;
13327;SDS011;6733;51.044;3.746;2023-08-30T00:44:57;6.87;;;5.37;;
13327;SDS011;6733;51.044;3.746;2023-08-30T00:47:24;6.77;;;5.10;;
13327;SDS011;6733;51.044;3.746;2023-08-30T00:49:50;5.70;;;4.97;;
13327;SDS011;6733;51.044;3.746;2023-08-30T00:52:16;5.60;;;5.10;;
13327;SDS011;6733;51.044;3.746;2023-08-30T00:54:43;5.43;;;4.80;;
13327;SDS011;6733;51.044;3.746;2023-08-30T00:57:09;5.80;;;5.10;;
13327;SDS011;6733;51.044;3.746;2023-08-30T00:59:35;5.77;;;4.90;;
13327;SDS011;6733;51.044;3.746;2023-08-30T01:02:02;6.30;;;5.17;;
13327;SDS011;6733;51.044;3.746;2023-08-30T01:04:30;8.33;;;5.63;;
13327;SDS011;6733;51.044;3.746;2023-08-30T01:06:56;6.77;;;5.40;;
13327;SDS011;6733;51.044;3.746;2023-08-30T01:09:23;6.83;;;5.47;;
13327;SDS011;6733;51.044;3.746;2023-08-30T01:14:45;7.20;;;5.70;;
13327;SDS011;6733;51.044;3.746;2023-08-30T01:17:16;6.40;;;5.33;;
13327;SDS011;6733;51.044;3.746;2023-08-30T01:19:55;8.37;;;5.20;;
13327;SDS011;6733;51.044;3.746;2023-08-30T01:27:45;6.57;;;5.30;;
13327;SDS011;6733;51.044;3.746;2023-08-30T01:30:13;7.27;;;5.47;;
13327;SDS011;6733;51.044;3.746;2023-08-30T01:32:41;6.60;;;5.63;;
13327;SDS011;6733;51.044;3.746;2023-08-30T01:35:08;7.77;;;5.60;;
13327;SDS011;6733;51.044;3.746;2023-08-30T01:37:35;5.33;;;4.83;;
13327;SDS011;6733;51.044;3.746;2023-08-30T01:40:03;6.80;;;6.10;;
13327;SDS011;6733;51.044;3.746;2023-08-30T01:42:30;9.00;;;5.20;;
13327;SDS011;6733;51.044;3.746;2023-08-30T01:44:58;7.93;;;5.27;;
13327;SDS011;6733;51.044;3.746;2023-08-30T01:47:27;6.50;;;5.20;;
13327;SDS011;6733;51.044;3.746;2023-08-30T01:49:54;7.30;;;5.03;;
13327;SDS011;6733;51.044;3.746;2023-08-30T01:52:22;7.00;;;5.00;;
13327;SDS011;6733;51.044;3.746;2023-08-30T01:54:49;5.43;;;4.93;;
13327;SDS011;6733;51.044;3.746;2023-08-30T01:57:18;6.20;;;4.97;;
13327;SDS011;6733;51.044;3.746;2023-08-30T01:59:44;8.17;;;5.30;;
13327;SDS011;6733;51.044;3.746;2023-08-30T02:02:11;8.90;;;5.13;;
13327;SDS011;6733;51.044;3.746;2023-08-30T02:04:37;6.17;;;5.37;;
13327;SDS011;6733;51.044;3.746;2023-08-30T02:07:04;6.40;;;5.17;;
13327;SDS011;6733;51.044;3.746;2023-08-30T02:09:42;5.97;;;4.80;;
13327;SDS011;6733;51.044;3.746;2023-08-30T02:12:19;5.77;;;4.53;;
13327;SDS011;6733;51.044;3.746;2023-08-30T02:14:50;5.03;;;4.50;;
13327;SDS011;6733;51.044;3.746;2023-08-30T02:17:18;5.90;;;5.00;;
13327;SDS011;6733;51.044;3.746;2023-08-30T02:19:45;7.00;;;4.80;;
13327;SDS011;6733;51.044;3.746;2023-08-30T02:22:13;5.73;;;5.13;;
13327;SDS011;6733;51.044;3.746;2023-08-30T02:24:39;5.97;;;4.60;;
13327;SDS011;6733;51.044;3.746;2023-08-30T02:27:05;6.60;;;5.03;;
13327;SDS011;6733;51.044;3.746;2023-08-30T02:29:31;9.03;;;4.90;;
13327;SDS011;6733;51.044;3.746;2023-08-30T02:31:58;5.67;;;5.07;;
13327;SDS011;6733;51.044;3.746;2023-08-30T02:34:52;6.70;;;5.33;;
13327;SDS011;6733;51.044;3.746;2023-08-30T02:37:47;5.90;;;5.30;;
13327;SDS011;6733;51.044;3.746;2023-08-30T02:40:41;8.23;;;5.80;;
13327;SDS011;6733;51.044;3.746;2023-08-30T02:43:36;11.20;;;5.83;;
13327;SDS011;6733;51.044;3.746;2023-08-30T02:46:31;8.07;;;5.90;;
13327;SDS011;6733;51.044;3.746;2023-08-30T02:49:26;6.73;;;5.77;;
13327;SDS011;6733;51.044;3.746;2023-08-30T02:52:20;7.23;;;6.00;;
13327;SDS011;6733;51.044;3.746;2023-08-30T02:55:15;6.20;;;5.60;;
13327;SDS011;6733;51.044;3.746;2023-08-30T02:58:09;9.13;;;6.43;;
13327;SDS011;6733;51.044;3.746;2023-08-30T03:00:36;7.37;;;5.80;;
13327;SDS011;6733;51.044;3.746;2023-08-30T03:03:02;6.87;;;6.13;;
13327;SDS011;6733;51.044;3.746;2023-08-30T03:05:28;8.17;;;5.90;;
13327;SDS011;6733;51.044;3.746;2023-08-30T03:07:57;9.20;;;6.63;;
13327;SDS011;6733;51.044;3.746;2023-08-30T03:10:24;6.90;;;6.17;;
13327;SDS011;6733;51.044;3.746;2023-08-30T03:12:50;7.10;;;6.40;;
13327;SDS011;6733;51.044;3.746;2023-08-30T03:15:17;10.10;;;6.67;;
13327;SDS011;6733;51.044;3.746;2023-08-30T03:17:43;7.57;;;6.50;;
13327;SDS011;6733;51.044;3.746;2023-08-30T03:20:09;9.27;;;6.47;;
13327;SDS011;6733;51.044;3.746;2023-08-30T03:22:36;8.20;;;6.07;;
13327;SDS011;6733;51.044;3.746;2023-08-30T03:25:03;7.60;;;6.30;;
13327;SDS011;6733;51.044;3.746;2023-08-30T03:27:30;7.87;;;6.20;;
13327;SDS011;6733;51.044;3.746;2023-08-30T03:29:56;6.80;;;5.93;;
13327;SDS011;6733;51.044;3.746;2023-08-30T03:32:22;7.40;;;5.93;;
13327;SDS011;6733;51.044;3.746;2023-08-30T03:34:48;7.53;;;6.07;;
13327;SDS011;6733;51.044;3.746;2023-08-30T03:37:15;7.10;;;5.87;;
13327;SDS011;6733;51.044;3.746;2023-08-30T03:39:41;6.63;;;5.67;;
13327;SDS011;6733;51.044;3.746;2023-08-30T03:42:08;7.07;;;5.23;;
13327;SDS011;6733;51.044;3.746;2023-08-30T03:44:34;8.13;;;5.20;;
13327;SDS011;6733;51.044;3.746;2023-08-30T03:47:00;12.10;;;5.70;;
13327;SDS011;6733;51.044;3.746;2023-08-30T03:49:28;6.73;;;5.53;;
13327;SDS011;6733;51.044;3.746;2023-08-30T03:51:55;5.57;;;4.93;;
13327;SDS011;6733;51.044;3.746;2023-08-30T03:54:21;6.80;;;5.33;;
13327;SDS011;6733;51.044;3.746;2023-08-30T03:56:47;6.80;;;5.20;;
13327;SDS011;6733;51.044;3.746;2023-08-30T03:59:13;7.33;;;5.60;;
13327;SDS011;6733;51.044;3.746;2023-08-30T04:01:40;6.13;;;5.20;;
13327;SDS011;6733;51.044;3.746;2023-08-30T04:04:06;7.27;;;5.60;;
13327;SDS011;6733;51.044;3.746;2023-08-30T04:06:32;7.53;;;5.73;;
13327;SDS011;6733;51.044;3.746;2023-08-30T04:08:59;6.27;;;5.60;;
13327;SDS011;6733;51.044;3.746;2023-08-30T04:11:25;8.17;;;5.50;;
13327;SDS011;6733;51.044;3.746;2023-08-30T04:13:51;6.90;;;5.53;;
13327;SDS011;6733;51.044;3.746;2023-08-30T04:16:18;6.03;;;5.43;;
13327;SDS011;6733;51.044;3.746;2023-08-30T04:18:44;6.40;;;5.80;;
13327;SDS011;6733;51.044;3.746;2023-08-30T04:21:10;7.20;;;5.70;;
13327;SDS011;6733;51.044;3.746;2023-08-30T04:23:37;7.23;;;5.70;;
13327;SDS011;6733;51.044;3.746;2023-08-30T04:26:03;6.83;;;6.13;;
13327;SDS011;6733;51.044;3.746;2023-08-30T04:28:29;6.57;;;5.97;;
13327;SDS011;6733;51.044;3.746;2023-08-30T04:30:55;6.30;;;5.80;;
13327;SDS011;6733;51.044;3.746;2023-08-30T04:33:23;9.87;;;7.33;;
13327;SDS011;6733;51.044;3.746;2023-08-30T04:35:50;8.53;;;7.73;;
13327;SDS011;6733;51.044;3.746;2023-08-30T04:38:20;9.33;;;8.53;;
13327;SDS011;6733;51.044;3.746;2023-08-30T04:40:47;9.73;;;8.83;;
13327;SDS011;6733;51.044;3.746;2023-08-30T04:43:14;9.43;;;8.37;;
13327;SDS011;6733;51.044;3.746;2023-08-30T04:45:40;11.37;;;8.70;;
13327;SDS011;6733;51.044;3.746;2023-08-30T04:48:06;10.87;;;9.83;;
13327;SDS011;6733;51.044;3.746;2023-08-30T04:50:33;12.67;;;11.43;;
13327;SDS011;6733;51.044;3.746;2023-08-30T04:52:59;11.20;;;9.93;;
13327;SDS011;6733;51.044;3.746;2023-08-30T04:55:25;12.77;;;11.10;;
13327;SDS011;6733;51.044;3.746;2023-08-30T04:57:54;12.03;;;10.93;;
13327;SDS011;6733;51.044;3.746;2023-08-30T05:00:20;12.13;;;10.93;;
13327;SDS011;6733;51.044;3.746;2023-08-30T05:02:46;13.23;;;10.53;;
13327;SDS011;6733;51.044;3.746;2023-08-30T05:05:14;12.40;;;11.20;;
13327;SDS011;6733;51.044;3.746;2023-08-30T05:07:43;12.17;;;10.83;;
13327;SDS011;6733;51.044;3.746;2023-08-30T05:10:09;12.07;;;10.97;;
13327;SDS011;6733;51.044;3.746;2023-08-30T05:12:36;12.40;;;10.80;;
13327;SDS011;6733;51.044;3.746;2023-08-30T05:15:02;11.57;;;10.47;;
13327;SDS011;6733;51.044;3.746;2023-08-30T05:17:29;12.07;;;10.10;;
13327;SDS011;6733;51.044;3.746;2023-08-30T05:19:56;15.20;;;11.07;;
13327;SDS011;6733;51.044;3.746;2023-08-30T05:22:22;10.93;;;9.83;;
13327;SDS011;6733;51.044;3.746;2023-08-30T05:24:48;13.23;;;10.30;;
13327;SDS011;6733;51.044;3.746;2023-08-30T05:27:15;11.10;;;9.07;;
13327;SDS011;6733;51.044;3.746;2023-08-30T05:29:43;11.80;;;10.60;;
13327;SDS011;6733;51.044;3.746;2023-08-30T05:32:09;11.40;;;10.30;;
13327;SDS011;6733;51.044;3.746;2023-08-30T05:34:36;11.30;;;10.30;;
13327;SDS011;6733;51.044;3.746;2023-08-30T05:37:02;11.70;;;10.50;;
13327;SDS011;6733;51.044;3.746;2023-08-30T05:39:29;11.33;;;10.20;;
13327;SDS011;6733;51.044;3.746;2023-08-30T05:41:55;10.83;;;9.63;;
13327;SDS011;6733;51.044;3.746;2023-08-30T05:44:21;12.37;;;11.17;;
13327;SDS011;6733;51.044;3.746;2023-08-30T05:46:48;12.37;;;11.03;;
13327;SDS011;6733;51.044;3.746;2023-08-30T05:49:14;12.30;;;11.00;;
13327;SDS011;6733;51.044;3.746;2023-08-30T05:51:41;10.47;;;9.47;;
13327;SDS011;6733;51.044;3.746;2023-08-30T05:54:07;11.20;;;10.00;;
13327;SDS011;6733;51.044;3.746;2023-08-30T05:56:33;12.73;;;9.93;;
13327;SDS011;6733;51.044;3.746;2023-08-30T05:58:59;11.53;;;10.53;;
13327;SDS011;6733;51.044;3.746;2023-08-30T06:01:26;11.30;;;10.20;;
13327;SDS011;6733;51.044;3.746;2023-08-30T06:03:52;10.67;;;9.63;;
13327;SDS011;6733;51.044;3.746;2023-08-30T06:06:20;10.57;;;9.37;;
13327;SDS011;6733;51.044;3.746;2023-08-30T06:08:46;10.23;;;9.13;;
13327;SDS011;6733;51.044;3.746;2023-08-30T06:11:12;9.87;;;8.97;;
13327;SDS011;6733;51.044;3.746;2023-08-30T06:13:39;10.60;;;9.50;;
13327;SDS011;6733;51.044;3.746;2023-08-30T06:16:05;10.30;;;9.27;;
13327;SDS011;6733;51.044;3.746;2023-08-30T06:18:32;9.47;;;8.57;;
13327;SDS011;6733;51.044;3.746;2023-08-30T06:20:58;10.13;;;8.70;;
13327;SDS011;6733;51.044;3.746;2023-08-30T06:23:24;9.60;;;8.70;;
13327;SDS011;6733;51.044;3.746;2023-08-30T06:25:54;9.20;;;8.20;;
13327;SDS011;6733;51.044;3.746;2023-08-30T06:28:23;9.23;;;8.33;;
13327;SDS011;6733;51.044;3.746;2023-08-30T06:30:50;8.70;;;7.80;;
13327;SDS011;6733;51.044;3.746;2023-08-30T06:33:16;8.77;;;7.90;;
13327;SDS011;6733;51.044;3.746;2023-08-30T06:35:43;8.80;;;7.67;;
13327;SDS011;6733;51.044;3.746;2023-08-30T06:38:09;7.87;;;7.17;;
13327;SDS011;6733;51.044;3.746;2023-08-30T06:40:36;7.77;;;7.03;;
13327;SDS011;6733;51.044;3.746;2023-08-30T06:43:02;8.83;;;7.27;;
13327;SDS011;6733;51.044;3.746;2023-08-30T06:45:28;8.70;;;7.07;;
13327;SDS011;6733;51.044;3.746;2023-08-30T06:47:55;8.20;;;6.87;;
13327;SDS011;6733;51.044;3.746;2023-08-30T06:50:21;7.00;;;6.40;;
13327;SDS011;6733;51.044;3.746;2023-08-30T06:52:47;6.93;;;6.23;;
13327;SDS011;6733;51.044;3.746;2023-08-30T06:55:13;6.10;;;5.50;;
13327;SDS011;6733;51.044;3.746;2023-08-30T06:57:40;6.63;;;6.03;;
13327;SDS011;6733;51.044;3.746;2023-08-30T07:00:06;6.30;;;5.50;;
13327;SDS011;6733;51.044;3.746;2023-08-30T07:02:33;8.53;;;6.50;;
13327;SDS011;6733;51.044;3.746;2023-08-30T07:05:02;6.13;;;5.60;;
13327;SDS011;6733;51.044;3.746;2023-08-30T07:07:30;6.70;;;5.83;;
13327;SDS011;6733;51.044;3.746;2023-08-30T07:09:57;5.17;;;4.67;;
13327;SDS011;6733;51.044;3.746;2023-08-30T07:12:23;7.30;;;5.83;;
13327;SDS011;6733;51.044;3.746;2023-08-30T07:14:51;5.47;;;4.97;;
13327;SDS011;6733;51.044;3.746;2023-08-30T07:17:17;5.80;;;5.17;;
13327;SDS011;6733;51.044;3.746;2023-08-30T07:19:43;5.50;;;5.00;;
13327;SDS011;6733;51.044;3.746;2023-08-30T07:22:10;6.20;;;5.67;;
13327;SDS011;6733;51.044;3.746;2023-08-30T07:24:36;6.03;;;5.23;;
13327;SDS011;6733;51.044;3.746;2023-08-30T07:27:02;6.67;;;5.50;;
13327;SDS011;6733;51.044;3.746;2023-08-30T07:29:29;5.87;;;5.37;;
13327;SDS011;6733;51.044;3.746;2023-08-30T07:31:56;5.70;;;5.20;;
13327;SDS011;6733;51.044;3.746;2023-08-30T07:34:22;6.00;;;5.33;;
13327;SDS011;6733;51.044;3.746;2023-08-30T07:36:49;5.20;;;4.70;;
13327;SDS011;6733;51.044;3.746;2023-08-30T07:39:15;8.60;;;5.30;;
13327;SDS011;6733;51.044;3.746;2023-08-30T07:41:41;6.70;;;6.00;;
13327;SDS011;6733;51.044;3.746;2023-08-30T07:44:08;7.13;;;6.10;;
13327;SDS011;6733;51.044;3.746;2023-08-30T07:46:34;6.20;;;5.60;;
13327;SDS011;6733;51.044;3.746;2023-08-30T07:49:00;7.33;;;6.50;;
13327;SDS011;6733;51.044;3.746;2023-08-30T07:51:27;6.43;;;5.83;;
13327;SDS011;6733;51.044;3.746;2023-08-30T07:53:53;6.27;;;5.67;;
13327;SDS011;6733;51.044;3.746;2023-08-30T07:56:19;5.97;;;5.37;;
13327;SDS011;6733;51.044;3.746;2023-08-30T07:58:48;7.30;;;6.37;;
13327;SDS011;6733;51.044;3.746;2023-08-30T08:01:14;7.57;;;5.70;;
13327;SDS011;6733;51.044;3.746;2023-08-30T08:03:41;6.90;;;6.20;;
13327;SDS011;6733;51.044;3.746;2023-08-30T08:06:07;8.40;;;6.17;;
13327;SDS011;6733;51.044;3.746;2023-08-30T08:08:33;8.60;;;7.20;;
13327;SDS011;6733;51.044;3.746;2023-08-30T08:10:59;8.73;;;5.97;;
13327;SDS011;6733;51.044;3.746;2023-08-30T08:13:26;5.80;;;5.17;;
13327;SDS011;6733;51.044;3.746;2023-08-30T08:15:56;7.17;;;6.03;;
13327;SDS011;6733;51.044;3.746;2023-08-30T08:18:23;5.97;;;5.47;;
13327;SDS011;6733;51.044;3.746;2023-08-30T08:20:50;8.50;;;6.17;;
13327;SDS011;6733;51.044;3.746;2023-08-30T08:23:16;6.57;;;5.90;;
13327;SDS011;6733;51.044;3.746;2023-08-30T08:25:43;6.87;;;5.43;;
13327;SDS011;6733;51.044;3.746;2023-08-30T08:28:09;6.40;;;5.90;;
13327;SDS011;6733;51.044;3.746;2023-08-30T08:30:36;6.60;;;6.00;;
13327;SDS011;6733;51.044;3.746;2023-08-30T08:33:02;6.37;;;5.73;;
13327;SDS011;6733;51.044;3.746;2023-08-30T08:35:28;7.67;;;5.77;;
13327;SDS011;6733;51.044;3.746;2023-08-30T08:37:55;5.90;;;5.30;;
13327;SDS011;6733;51.044;3.746;2023-08-30T08:40:21;7.17;;;5.43;;
13327;SDS011;6733;51.044;3.746;2023-08-30T08:42:48;5.27;;;4.77;;
13327;SDS011;6733;51.044;3.746;2023-08-30T08:45:17;6.23;;;4.70;;
13327;SDS011;6733;51.044;3.746;2023-08-30T08:47:46;4.33;;;3.93;;
13327;SDS011;6733;51.044;3.746;2023-08-30T08:50:19;10.60;;;4.70;;
13327;SDS011;6733;51.044;3.746;2023-08-30T08:52:48;7.87;;;4.37;;
13327;SDS011;6733;51.044;3.746;2023-08-30T08:55:17;7.27;;;4.30;;
13327;SDS011;6733;51.044;3.746;2023-08-30T08:57:43;4.10;;;3.57;;
13327;SDS011;6733;51.044;3.746;2023-08-30T09:00:11;7.20;;;3.93;;
13327;SDS011;6733;51.044;3.746;2023-08-30T09:02:38;5.40;;;3.70;;
13327;SDS011;6733;51.044;3.746;2023-08-30T09:05:06;5.30;;;3.50;;
13327;SDS011;6733;51.044;3.746;2023-08-30T09:07:33;5.67;;;3.40;;
13327;SDS011;6733;51.044;3.746;2023-08-30T09:10:00;4.73;;;3.67;;
13327;SDS011;6733;51.044;3.746;2023-08-30T09:12:26;5.70;;;3.73;;
13327;SDS011;6733;51.044;3.746;2023-08-30T09:14:53;5.33;;;3.30;;
13327;SDS011;6733;51.044;3.746;2023-08-30T09:17:23;5.10;;;3.50;;
13327;SDS011;6733;51.044;3.746;2023-08-30T09:19:49;5.30;;;2.77;;
13327;SDS011;6733;51.044;3.746;2023-08-30T09:22:16;4.87;;;3.27;;
13327;SDS011;6733;51.044;3.746;2023-08-30T09:24:42;4.53;;;3.10;;
13327;SDS011;6733;51.044;3.746;2023-08-30T09:27:08;5.30;;;2.93;;
13327;SDS011;6733;51.044;3.746;2023-08-30T09:29:35;5.13;;;2.80;;
13327;SDS011;6733;51.044;3.746;2023-08-30T09:32:01;4.17;;;2.97;;
13327;SDS011;6733;51.044;3.746;2023-08-30T09:34:28;4.37;;;2.80;;
13327;SDS011;6733;51.044;3.746;2023-08-30T09:36:54;5.00;;;3.20;;
13327;SDS011;6733;51.044;3.746;2023-08-30T09:39:21;4.00;;;2.80;;
13327;SDS011;6733;51.044;3.746;2023-08-30T09:41:48;8.30;;;3.07;;
13327;SDS011;6733;51.044;3.746;2023-08-30T09:44:16;5.50;;;2.90;;
13327;SDS011;6733;51.044;3.746;2023-08-30T09:46:48;7.30;;;3.30;;
13327;SDS011;6733;51.044;3.746;2023-08-30T09:49:22;7.37;;;3.03;;
13327;SDS011;6733;51.044;3.746;2023-08-30T09:51:50;5.33;;;3.00;;
13327;SDS011;6733;51.044;3.746;2023-08-30T09:54:21;7.00;;;2.77;;
13327;SDS011;6733;51.044;3.746;2023-08-30T09:56:49;5.77;;;2.57;;
13327;SDS011;6733;51.044;3.746;2023-08-30T09:59:18;5.33;;;2.87;;
13327;SDS011;6733;51.044;3.746;2023-08-30T10:01:46;8.47;;;3.07;;
13327;SDS011;6733;51.044;3.746;2023-08-30T10:04:19;8.90;;;3.10;;
13327;SDS011;6733;51.044;3.746;2023-08-30T10:06:46;6.43;;;2.90;;
13327;SDS011;6733;51.044;3.746;2023-08-30T10:09:13;4.17;;;2.80;;
13327;SDS011;6733;51.044;3.746;2023-08-30T10:11:41;6.20;;;2.83;;
13327;SDS011;6733;51.044;3.746;2023-08-30T10:14:07;7.70;;;2.93;;
13327;SDS011;6733;51.044;3.746;2023-08-30T10:19:31;6.23;;;2.90;;
13327;SDS011;6733;51.044;3.746;2023-08-30T10:22:06;6.37;;;2.87;;
13327;SDS011;6733;51.044;3.746;2023-08-30T10:24:41;7.70;;;3.23;;
13327;SDS011;6733;51.044;3.746;2023-08-30T10:27:10;8.53;;;3.27;;
13327;SDS011;6733;51.044;3.746;2023-08-30T10:29:37;7.73;;;2.80;;
13327;SDS011;6733;51.044;3.746;2023-08-30T10:32:06;6.10;;;2.83;;
13327;SDS011;6733;51.044;3.746;2023-08-30T10:34:33;6.50;;;2.90;;
13327;SDS011;6733;51.044;3.746;2023-08-30T10:37:10;8.57;;;3.63;;
13327;SDS011;6733;51.044;3.746;2023-08-30T10:39:38;9.07;;;3.40;;
13327;SDS011;6733;51.044;3.746;2023-08-30T10:42:09;5.47;;;2.60;;
13327;SDS011;6733;51.044;3.746;2023-08-30T10:44:52;4.90;;;3.10;;
13327;SDS011;6733;51.044;3.746;2023-08-30T10:47:25;7.13;;;2.87;;
13327;SDS011;6733;51.044;3.746;2023-08-30T10:49:58;9.07;;;2.97;;
13327;SDS011;6733;51.044;3.746;2023-08-30T10:52:27;5.97;;;2.90;;
13327;SDS011;6733;51.044;3.746;2023-08-30T10:55:04;5.93;;;2.50;;
13327;SDS011;6733;51.044;3.746;2023-08-30T10:57:35;10.40;;;3.20;;
13327;SDS011;6733;51.044;3.746;2023-08-30T11:02:44;8.87;;;3.03;;
13327;SDS011;6733;51.044;3.746;2023-08-30T11:05:23;4.57;;;2.50;;
13327;SDS011;6733;51.044;3.746;2023-08-30T11:07:51;8.50;;;3.07;;
13327;SDS011;6733;51.044;3.746;2023-08-30T11:10:20;7.07;;;3.20;;
13327;SDS011;6733;51.044;3.746;2023-08-30T11:12:47;5.87;;;2.77;;
13327;SDS011;6733;51.044;3.746;2023-08-30T11:15:17;8.33;;;2.83;;
13327;SDS011;6733;51.044;3.746;2023-08-30T11:17:43;8.33;;;2.93;;
13327;SDS011;6733;51.044;3.746;2023-08-30T11:20:11;5.03;;;2.83;;
13327;SDS011;6733;51.044;3.746;2023-08-30T11:22:39;6.33;;;2.60;;
13327;SDS011;6733;51.044;3.746;2023-08-30T11:25:07;6.87;;;2.53;;
13327;SDS011;6733;51.044;3.746;2023-08-30T11:27:35;4.83;;;2.63;;
13327;SDS011;6733;51.044;3.746;2023-08-30T11:30:01;5.07;;;2.83;;
13327;SDS011;6733;51.044;3.746;2023-08-30T11:32:34;5.33;;;2.50;;
13327;SDS011;6733;51.044;3.746;2023-08-30T11:35:10;6.17;;;2.37;;
13327;SDS011;6733;51.044;3.746;2023-08-30T11:37:37;5.90;;;2.37;;
13327;SDS011;6733;51.044;3.746;2023-08-30T11:40:05;4.87;;;2.50;;
13327;SDS011;6733;51.044;3.746;2023-08-30T11:42:32;4.10;;;2.20;;
13327;SDS011;6733;51.044;3.746;2023-08-30T11:44:58;5.93;;;2.43;;
13327;SDS011;6733;51.044;3.746;2023-08-30T11:47:26;7.17;;;2.60;;
13327;SDS011;6733;51.044;3.746;2023-08-30T11:49:52;5.97;;;2.43;;
13327;SDS011;6733;51.044;3.746;2023-08-30T11:52:20;6.03;;;2.40;;
13327;SDS011;6733;51.044;3.746;2023-08-30T11:54:48;6.77;;;2.80;;
13327;SDS011;6733;51.044;3.746;2023-08-30T11:57:16;5.50;;;2.43;;
13327;SDS011;6733;51.044;3.746;2023-08-30T11:59:43;6.87;;;2.37;;
13327;SDS011;6733;51.044;3.746;2023-08-30T12:02:11;7.70;;;2.60;;
13327;SDS011;6733;51.044;3.746;2023-08-30T12:04:40;4.50;;;2.20;;
13327;SDS011;6733;51.044;3.746;2023-08-30T12:07:32;3.47;;;2.33;;
13327;SDS011;6733;51.044;3.746;2023-08-30T12:10:05;4.40;;;2.20;;
13327;SDS011;6733;51.044;3.746;2023-08-30T12:12:33;4.67;;;2.40;;
13327;SDS011;6733;51.044;3.746;2023-08-30T12:15:11;5.20;;;2.17;;
13327;SDS011;6733;51.044;3.746;2023-08-30T12:17:38;7.13;;;2.40;;
13327;SDS011;6733;51.044;3.746;2023-08-30T12:20:04;2.80;;;1.93;;
13327;SDS011;6733;51.044;3.746;2023-08-30T12:22:37;3.80;;;2.07;;
13327;SDS011;6733;51.044;3.746;2023-08-30T12:25:04;3.93;;;2.30;;
13327;SDS011;6733;51.044;3.746;2023-08-30T12:27:51;6.20;;;2.17;;
13327;SDS011;6733;51.044;3.746;2023-08-30T12:30:18;4.70;;;1.80;;
13327;SDS011;6733;51.044;3.746;2023-08-30T12:32:45;5.37;;;2.10;;
13327;SDS011;6733;51.044;3.746;2023-08-30T12:35:12;3.93;;;2.20;;
13327;SDS011;6733;51.044;3.746;2023-08-30T12:37:38;7.63;;;2.47;;
13327;SDS011;6733;51.044;3.746;2023-08-30T12:40:04;4.23;;;2.33;;
13327;SDS011;6733;51.044;3.746;2023-08-30T12:42:31;4.27;;;2.10;;
13327;SDS011;6733;51.044;3.746;2023-08-30T12:44:58;4.67;;;2.33;;
13327;SDS011;6733;51.044;3.746;2023-08-30T12:47:25;4.40;;;2.13;;
13327;SDS011;6733;51.044;3.746;2023-08-30T12:49:51;4.03;;;2.27;;
13327;SDS011;6733;51.044;3.746;2023-08-30T12:52:17;4.37;;;2.10;;
13327;SDS011;6733;51.044;3.746;2023-08-30T12:54:43;5.43;;;2.13;;
13327;SDS011;6733;51.044;3.746;2023-08-30T12:57:10;4.87;;;2.10;;
13327;SDS011;6733;51.044;3.746;2023-08-30T12:59:36;6.10;;;2.27;;
13327;SDS011;6733;51.044;3.746;2023-08-30T13:02:03;3.27;;;2.03;;
13327;SDS011;6733;51.044;3.746;2023-08-30T13:04:29;4.93;;;2.00;;
13327;SDS011;6733;51.044;3.746;2023-08-30T13:06:55;5.27;;;1.90;;
13327;SDS011;6733;51.044;3.746;2023-08-30T13:09:22;4.00;;;1.80;;
13327;SDS011;6733;51.044;3.746;2023-08-30T13:11:48;4.33;;;2.10;;
13327;SDS011;6733;51.044;3.746;2023-08-30T13:14:14;4.77;;;2.00;;
13327;SDS011;6733;51.044;3.746;2023-08-30T13:16:40;4.90;;;2.03;;
13327;SDS011;6733;51.044;3.746;2023-08-30T13:19:07;4.97;;;2.13;;
13327;SDS011;6733;51.044;3.746;2023-08-30T13:21:33;7.17;;;2.17;;
13327;SDS011;6733;51.044;3.746;2023-08-30T13:23:59;5.67;;;2.13;;
13327;SDS011;6733;51.044;3.746;2023-08-30T13:26:26;6.97;;;2.10;;
13327;SDS011;6733;51.044;3.746;2023-08-30T13:28:52;2.80;;;2.00;;
13327;SDS011;6733;51.044;3.746;2023-08-30T13:31:18;6.03;;;2.27;;
13327;SDS011;6733;51.044;3.746;2023-08-30T13:33:44;5.07;;;2.30;;
13327;SDS011;6733;51.044;3.746;2023-08-30T13:36:10;4.17;;;2.00;;
13327;SDS011;6733;51.044;3.746;2023-08-30T13:38:36;5.13;;;2.10;;
13327;SDS011;6733;51.044;3.746;2023-08-30T13:41:03;4.50;;;1.93;;
13327;SDS011;6733;51.044;3.746;2023-08-30T13:43:30;3.03;;;1.87;;
13327;SDS011;6733;51.044;3.746;2023-08-30T13:45:57;5.27;;;2.50;;
13327;SDS011;6733;51.044;3.746;2023-08-30T13:48:24;4.87;;;2.23;;
13327;SDS011;6733;51.044;3.746;2023-08-30T13:50:50;6.63;;;2.27;;
13327;SDS011;6733;51.044;3.746;2023-08-30T13:53:17;6.07;;;2.40;;
13327;SDS011;6733;51.044;3.746;2023-08-30T13:55:46;7.10;;;2.50;;
13327;SDS011;6733;51.044;3.746;2023-08-30T13:58:14;3.93;;;1.90;;
13327;SDS011;6733;51.044;3.746;2023-08-30T14:00:41;4.50;;;2.10;;
13327;SDS011;6733;51.044;3.746;2023-08-30T14:03:07;5.03;;;2.10;;
13327;SDS011;6733;51.044;3.746;2023-08-30T14:05:34;5.17;;;2.17;;
13327;SDS011;6733;51.044;3.746;2023-08-30T14:08:00;3.10;;;1.90;;
13327;SDS011;6733;51.044;3.746;2023-08-30T14:10:26;3.50;;;2.10;;
13327;SDS011;6733;51.044;3.746;2023-08-30T14:12:54;3.27;;;2.00;;
13327;SDS011;6733;51.044;3.746;2023-08-30T14:15:20;3.30;;;1.60;;
13327;SDS011;6733;51.044;3.746;2023-08-30T14:17:46;5.23;;;2.10;;
13327;SDS011;6733;51.044;3.746;2023-08-30T14:20:13;4.97;;;2.37;;
13327;SDS011;6733;51.044;3.746;2023-08-30T14:22:39;3.60;;;1.77;;
13327;SDS011;6733;51.044;3.746;2023-08-30T14:25:05;3.90;;;1.80;;
13327;SDS011;6733;51.044;3.746;2023-08-30T14:27:32;7.67;;;1.60;;
13327;SDS011;6733;51.044;3.746;2023-08-30T14:29:58;4.17;;;1.70;;
13327;SDS011;6733;51.044;3.746;2023-08-30T14:32:26;4.97;;;2.07;;
13327;SDS011;6733;51.044;3.746;2023-08-30T14:34:52;3.97;;;1.73;;
13327;SDS011;6733;51.044;3.746;2023-08-30T14:37:18;4.90;;;2.47;;
13327;SDS011;6733;51.044;3.746;2023-08-30T14:39:45;4.80;;;2.08;;
13327;SDS011;6733;51.044;3.746;2023-08-30T14:42:11;3.85;;;1.95;;
13327;SDS011;6733;51.044;3.746;2023-08-30T14:44:37;3.97;;;1.58;;
13327;SDS011;6733;51.044;3.746;2023-08-30T14:47:03;3.90;;;1.80;;
13327;SDS011;6733;51.044;3.746;2023-08-30T14:49:30;3.97;;;1.85;;
13327;SDS011;6733;51.044;3.746;2023-08-30T14:51:57;2.28;;;1.58;;
13327;SDS011;6733;51.044;3.746;2023-08-30T14:54:23;3.03;;;1.98;;
13327;SDS011;6733;51.044;3.746;2023-08-30T14:56:50;2.30;;;1.40;;
13327;SDS011;6733;51.044;3.746;2023-08-30T14:59:16;3.85;;;1.92;;
13327;SDS011;6733;51.044;3.746;2023-08-30T15:01:42;4.85;;;2.28;;
13327;SDS011;6733;51.044;3.746;2023-08-30T15:04:08;3.78;;;2.15;;
13327;SDS011;6733;51.044;3.746;2023-08-30T15:06:34;3.95;;;1.60;;
13327;SDS011;6733;51.044;3.746;2023-08-30T15:09:02;5.40;;;1.92;;
13327;SDS011;6733;51.044;3.746;2023-08-30T15:11:28;2.80;;;1.92;;
13327;SDS011;6733;51.044;3.746;2023-08-30T15:13:55;3.97;;;1.83;;
13327;SDS011;6733;51.044;3.746;2023-08-30T15:16:22;5.03;;;2.30;;